Time;durP1;ratioP1;P1;durP2;ratioP2;P2;SDS_P1;SDS_P2;PMS_P1;PMS_P2;Temp;Humidity;BMP_temperature;BMP_pressure;BME280_temperature;BME280_humidity;BME280_pressure;Samples;Min_cycle;Max_cycle;Signal;HPM_P1;HPM_P2
2023/09/20 00:01:51;;;;;;;4.53;2.00;;;21.50;66.50;;;;;;5124455;27;20706;-61
2023/09/20 00:04:18;;;;;;;3.72;1.70;;;21.50;66.50;;;;;;5092176;28;20197;-60
2023/09/20 00:06:47;;;;;;;4.72;2.08;;;21.40;66.40;;;;;;5097701;28;20296;-61
2023/09/20 00:09:17;;;;;;;8.30;2.05;;;21.50;66.50;;;;;;5112217;28;20239;-59
2023/09/20 00:11:45;;;;;;;3.20;1.80;;;21.50;66.60;;;;;;5112240;28;20213;-60
2023/09/20 00:14:12;;;;;;;5.05;2.20;;;21.40;66.40;;;;;;5111993;28;20280;-60
2023/09/20 00:16:40;;;;;;;5.22;1.80;;;21.50;66.60;;;;;;5105623;27;20271;-60
2023/09/20 00:19:08;;;;;;;5.25;1.70;;;21.40;66.40;;;;;;5132636;27;20304;-60
2023/09/20 00:21:36;;;;;;;4.57;1.98;;;21.40;66.50;;;;;;5127463;27;20643;-60
2023/09/20 00:24:05;;;;;;;3.92;1.80;;;21.40;66.40;;;;;;5091641;28;20190;-60
2023/09/20 00:26:34;;;;;;;5.57;1.92;;;21.50;66.60;;;;;;5094448;28;20224;-59
2023/09/20 00:29:04;;;;;;;3.80;1.63;;;21.40;66.40;;;;;;5111343;28;20189;-59
2023/09/20 00:31:32;;;;;;;3.70;1.65;;;21.40;66.50;;;;;;5111804;28;20225;-58
2023/09/20 00:37:00;;;;;;;3.45;1.73;;;21.40;66.50;;;;;;5103631;28;20213;-60
2023/09/20 00:46:44;;;;;;;3.58;1.40;;;21.50;66.60;;;;;;5111917;28;20208;-58
2023/09/20 00:49:13;;;;;;;5.05;1.83;;;21.40;66.50;;;;;;5105128;28;20196;-55
2023/09/20 00:51:40;;;;;;;4.47;1.85;;;21.30;66.50;;;;;;5111305;28;20217;-57
2023/09/20 00:54:08;;;;;;;3.80;1.85;;;21.40;66.50;;;;;;5131347;28;20319;-60
2023/09/20 00:56:35;;;;;;;4.97;1.75;;;21.40;66.60;;;;;;5130422;27;20216;-58
2023/09/20 00:59:07;;;;;;;6.30;1.88;;;21.40;66.60;;;;;;5093688;28;20221;-59
2023/09/20 01:01:34;;;;;;;2.65;1.80;;;21.40;66.60;;;;;;5092228;28;20275;-60
2023/09/20 01:04:03;;;;;;;2.50;1.52;;;21.40;66.50;;;;;;5101677;28;20193;-61
2023/09/20 01:06:32;;;;;;;4.90;2.08;;;21.40;66.50;;;;;;5109928;28;20221;-60
2023/09/20 01:08:59;;;;;;;4.15;1.75;;;21.40;66.50;;;;;;5108097;28;20190;-60
2023/09/20 01:11:27;;;;;;;3.65;1.60;;;21.40;66.50;;;;;;5111728;28;20316;-60
2023/09/20 01:13:55;;;;;;;3.05;1.77;;;21.40;67.30;;;;;;5110681;28;20276;-58
2023/09/20 01:16:23;;;;;;;5.07;1.70;;;21.40;66.50;;;;;;5111792;28;20398;-58
2023/09/20 01:18:50;;;;;;;3.58;1.52;;;21.30;67.30;;;;;;5128520;28;20219;-60
2023/09/20 01:21:18;;;;;;;6.55;1.98;;;21.40;66.50;;;;;;5122133;27;20205;-57
2023/09/20 01:23:49;;;;;;;4.32;1.80;;;21.30;66.50;;;;;;5126736;28;20204;-59
2023/09/20 01:26:17;;;;;;;3.60;1.75;;;21.40;66.50;;;;;;5131522;27;20217;-61
2023/09/20 01:28:44;;;;;;;5.10;1.80;;;21.40;67.40;;;;;;5099582;28;20197;-57
2023/09/20 01:31:12;;;;;;;3.58;1.60;;;21.30;66.40;;;;;;5089208;28;20214;-60
2023/09/20 01:33:39;;;;;;;3.28;1.73;;;21.30;66.40;;;;;;5107149;28;20248;-60
2023/09/20 01:36:06;;;;;;;4.07;1.60;;;21.40;66.50;;;;;;5111187;28;20296;-59
2023/09/20 01:38:34;;;;;;;3.15;2.00;;;21.40;66.50;;;;;;5102274;28;20194;-60
2023/09/20 01:41:03;;;;;;;3.53;1.83;;;21.30;66.40;;;;;;5090256;28;20313;-60
2023/09/20 01:43:31;;;;;;;7.22;1.90;;;21.40;66.60;;;;;;5105593;28;20242;-60
2023/09/20 01:45:59;;;;;;;5.07;1.75;;;21.30;66.40;;;;;;5110609;28;20568;-60
2023/09/20 01:48:26;;;;;;;3.13;1.70;;;21.40;66.60;;;;;;5111324;28;20215;-58
2023/09/20 01:50:54;;;;;;;3.08;1.80;;;21.40;66.60;;;;;;5113561;28;20213;-58
2023/09/20 01:59:45;;;;;;;2.90;1.60;;;21.40;66.60;;;;;;5076458;28;20239;-59
2023/09/20 02:02:13;;;;;;;2.65;1.60;;;21.40;66.60;;;;;;5096897;28;20299;-57
2023/09/20 02:04:40;;;;;;;3.85;1.98;;;21.40;66.60;;;;;;5114206;28;20284;-60
2023/09/20 02:07:09;;;;;;;3.05;1.58;;;21.40;66.70;;;;;;5113518;28;20312;-59
2023/09/20 02:09:37;;;;;;;5.22;1.40;;;21.40;66.70;;;;;;5130087;27;20241;-60
2023/09/20 02:12:04;;;;;;;4.43;1.73;;;21.30;66.50;;;;;;5131795;27;20227;-60
2023/09/20 02:14:41;;;;;;;3.92;1.80;;;21.40;66.60;;;;;;5107381;28;20276;-60
2023/09/20 02:17:10;;;;;;;3.42;1.70;;;21.40;66.60;;;;;;5113842;28;20753;-53
2023/09/20 02:19:38;;;;;;;3.30;1.63;;;21.40;66.70;;;;;;5134105;27;20219;-60
2023/09/20 02:22:06;;;;;;;4.47;1.80;;;21.40;66.70;;;;;;5133534;27;20217;-58
2023/09/20 02:24:33;;;;;;;2.35;1.50;;;21.40;66.70;;;;;;5094944;28;20221;-57
2023/09/20 02:27:00;;;;;;;2.78;1.58;;;21.30;66.60;;;;;;5093359;28;20263;-60
2023/09/20 02:29:30;;;;;;;3.40;1.70;;;21.30;66.60;;;;;;5109180;28;20233;-59
2023/09/20 02:32:00;;;;;;;5.93;1.50;;;21.30;66.60;;;;;;5113652;28;20243;-59
2023/09/20 02:34:29;;;;;;;2.83;1.52;;;21.40;66.70;;;;;;5127752;27;20192;-59
2023/09/20 02:36:57;;;;;;;2.25;1.45;;;21.40;66.70;;;;;;5134313;27;20602;-58
2023/09/20 02:39:24;;;;;;;3.35;1.50;;;21.30;66.60;;;;;;5101942;27;20299;-60
2023/09/20 02:41:52;;;;;;;2.13;1.13;;;21.40;66.70;;;;;;5093266;28;20275;-59
2023/09/20 02:44:19;;;;;;;3.88;1.77;;;21.30;67.40;;;;;;5111258;28;20654;-59
2023/09/20 02:46:49;;;;;;;5.60;1.35;;;21.30;66.70;;;;;;5113275;28;20217;-57
2023/09/20 02:49:16;;;;;;;3.28;1.60;;;21.30;66.60;;;;;;5113049;28;20189;-59
2023/09/20 02:51:47;;;;;;;4.35;1.63;;;21.30;66.60;;;;;;5113330;28;20311;-59
2023/09/20 02:54:17;;;;;;;4.65;1.58;;;21.40;66.80;;;;;;5113067;28;20221;-59
2023/09/20 02:56:45;;;;;;;3.33;1.55;;;21.30;66.60;;;;;;5113306;28;20217;-60
2023/09/20 02:59:13;;;;;;;5.07;1.65;;;21.30;66.70;;;;;;5112765;28;20765;-59
2023/09/20 03:01:40;;;;;;;2.58;1.42;;;21.30;66.70;;;;;;5113313;28;20304;-59
2023/09/20 03:04:07;;;;;;;2.70;1.40;;;21.30;66.60;;;;;;5121865;27;20626;-59
2023/09/20 03:06:34;;;;;;;3.83;1.50;;;21.30;66.70;;;;;;5134380;27;20240;-59
2023/09/20 03:09:06;;;;;;;2.28;1.70;;;21.40;66.80;;;;;;5111111;27;20194;-57
2023/09/20 03:11:35;;;;;;;3.40;1.58;;;21.30;66.70;;;;;;5092238;28;20668;-58
2023/09/20 03:14:23;;;;;;;4.18;1.73;;;21.30;66.70;;;;;;5121107;27;20185;-60
2023/09/20 03:16:50;;;;;;;2.70;1.40;;;21.30;66.70;;;;;;5121330;27;20224;-60
2023/09/20 03:19:33;;;;;;;3.90;1.55;;;21.30;66.70;;;;;;5101926;27;20241;-61
2023/09/20 03:22:01;;;;;;;2.97;1.70;;;21.30;66.70;;;;;;5092556;28;20304;-60
2023/09/20 03:24:30;;;;;;;2.78;1.60;;;21.30;66.70;;;;;;5109843;28;20189;-60
2023/09/20 03:27:16;;;;;;;3.35;1.35;;;21.20;66.70;;;;;;5093836;28;20225;-58
2023/09/20 03:29:46;;;;;;;2.50;1.50;;;21.30;66.70;;;;;;5127187;27;20188;-60
2023/09/20 03:32:15;;;;;;;2.65;1.52;;;21.30;66.80;;;;;;5133098;27;20709;-59
2023/09/20 03:34:42;;;;;;;2.65;1.35;;;21.20;66.60;;;;;;5100434;27;20190;-58
2023/09/20 03:37:10;;;;;;;2.95;1.38;;;21.30;66.80;;;;;;5111057;28;20220;-58
2023/09/20 03:39:41;;;;;;;3.03;1.48;;;21.30;66.80;;;;;;5112000;28;20209;-58
2023/09/20 03:42:11;;;;;;;5.82;1.80;;;21.30;66.80;;;;;;5112468;28;20221;-60
2023/09/20 03:44:38;;;;;;;5.85;1.55;;;21.30;66.80;;;;;;5112870;28;20626;-55
2023/09/20 03:47:08;;;;;;;3.38;1.50;;;21.30;66.80;;;;;;5112532;28;20270;-56
2023/09/20 03:49:35;;;;;;;2.60;1.40;;;21.30;66.80;;;;;;5112558;28;20197;-59
2023/09/20 03:52:03;;;;;;;3.90;1.52;;;21.30;66.80;;;;;;5111984;28;20220;-57
2023/09/20 03:54:31;;;;;;;4.13;1.83;;;21.30;66.90;;;;;;5112904;28;20206;-61
2023/09/20 03:56:59;;;;;;;2.63;1.30;;;21.30;66.90;;;;;;5110002;28;20266;-58
2023/09/20 03:59:27;;;;;;;2.28;1.50;;;21.30;66.80;;;;;;5110691;28;20210;-59
2023/09/20 04:01:54;;;;;;;3.55;1.50;;;21.20;66.70;;;;;;5125983;27;20255;-58
2023/09/20 04:04:21;;;;;;;3.20;1.30;;;21.30;66.90;;;;;;5133064;27;20193;-59
2023/09/20 04:06:49;;;;;;;3.65;1.25;;;21.30;66.90;;;;;;5107058;27;20221;-58
2023/09/20 04:09:16;;;;;;;3.55;1.55;;;21.30;66.90;;;;;;5091558;28;20651;-58
2023/09/20 04:11:43;;;;;;;2.90;1.67;;;21.30;66.80;;;;;;5104328;28;20214;-59
2023/09/20 04:14:12;;;;;;;1.85;1.50;;;21.30;66.90;;;;;;5103196;28;20200;-60
2023/09/20 04:16:40;;;;;;;3.20;1.60;;;21.20;66.80;;;;;;5111943;28;20308;-59
2023/09/20 04:19:08;;;;;;;4.60;1.70;;;21.30;66.90;;;;;;5111451;28;20700;-59
2023/09/20 04:21:37;;;;;;;3.08;1.40;;;21.30;66.90;;;;;;5111611;28;20229;-57
2023/09/20 04:24:07;;;;;;;2.95;1.73;;;21.30;66.90;;;;;;5111888;28;20200;-57
2023/09/20 04:26:34;;;;;;;3.25;1.40;;;21.30;66.90;;;;;;5111329;28;20220;-60
2023/09/20 04:29:01;;;;;;;2.38;1.50;;;21.30;67.00;;;;;;5111651;28;20284;-61
2023/09/20 04:34:18;;;;;;;5.68;2.10;;;21.30;66.90;;;;;;5109196;28;20201;-60
2023/09/20 04:36:46;;;;;;;2.88;1.70;;;21.30;67.10;;;;;;5111234;28;20568;-60
2023/09/20 04:39:15;;;;;;;2.63;1.63;;;21.30;67.10;;;;;;5111618;28;20276;-59
2023/09/20 04:41:43;;;;;;;1.88;1.40;;;21.30;67.00;;;;;;5111376;28;20311;-59
2023/09/20 04:44:10;;;;;;;3.17;1.70;;;21.20;66.90;;;;;;5111678;28;20189;-59
2023/09/20 04:46:39;;;;;;;3.38;1.85;;;21.30;67.10;;;;;;5111348;28;20583;-60
2023/09/20 04:49:06;;;;;;;3.53;1.60;;;21.30;67.10;;;;;;5111657;28;20193;-60
2023/09/20 04:51:34;;;;;;;2.85;1.95;;;21.20;67.10;;;;;;5110941;28;20217;-59
2023/09/20 04:54:01;;;;;;;3.92;1.92;;;21.30;67.10;;;;;;5111376;28;20307;-60
2023/09/20 04:56:28;;;;;;;5.53;1.60;;;21.30;67.20;;;;;;5111312;28;20710;-60
2023/09/20 04:58:57;;;;;;;2.50;1.60;;;21.20;67.10;;;;;;5104592;28;20194;-60
2023/09/20 05:01:24;;;;;;;4.68;2.13;;;21.30;67.20;;;;;;5117335;28;20235;-59
2023/09/20 05:03:53;;;;;;;2.63;1.83;;;21.20;67.10;;;;;;5132286;28;20270;-59
2023/09/20 05:06:21;;;;;;;3.42;1.60;;;21.30;67.20;;;;;;5121107;27;20226;-60
2023/09/20 05:08:50;;;;;;;3.58;2.05;;;21.20;67.10;;;;;;5090859;28;20190;-58
2023/09/20 05:11:19;;;;;;;3.88;1.77;;;21.20;67.10;;;;;;5096224;28;20213;-59
2023/09/20 05:13:46;;;;;;;5.10;2.03;;;21.20;67.20;;;;;;5111862;28;20197;-60
2023/09/20 05:16:14;;;;;;;3.72;1.80;;;21.20;67.20;;;;;;5111320;28;20224;-59
2023/09/20 05:18:41;;;;;;;3.83;2.05;;;21.30;67.30;;;;;;5111241;28;20197;-59
2023/09/20 05:21:10;;;;;;;5.05;2.03;;;21.30;67.30;;;;;;5110905;28;20460;-60
2023/09/20 05:23:40;;;;;;;4.72;2.17;;;21.30;67.30;;;;;;5129185;28;20543;-60
2023/09/20 05:26:07;;;;;;;4.45;2.25;;;21.30;67.30;;;;;;5131722;27;20292;-59
2023/09/20 05:28:36;;;;;;;5.20;2.22;;;21.20;67.20;;;;;;5099172;28;20286;-59
2023/09/20 05:31:05;;;;;;;4.50;2.22;;;21.20;67.20;;;;;;5096703;28;20275;-60
2023/09/20 05:33:32;;;;;;;7.55;2.35;;;21.20;67.20;;;;;;5115684;28;20274;-60
2023/09/20 05:36:00;;;;;;;5.28;2.13;;;21.30;67.30;;;;;;5114866;28;20304;-59
2023/09/20 05:38:28;;;;;;;4.95;2.20;;;21.20;67.20;;;;;;5114528;28;20279;-62
2023/09/20 05:40:55;;;;;;;5.03;2.45;;;21.20;67.20;;;;;;5114275;28;20232;-59
2023/09/20 05:43:23;;;;;;;5.70;2.60;;;21.20;67.30;;;;;;5115239;28;20190;-54
2023/09/20 05:45:51;;;;;;;3.88;2.20;;;21.20;67.20;;;;;;5114836;28;20218;-59
2023/09/20 05:48:18;;;;;;;4.38;2.45;;;21.30;67.30;;;;;;5099634;28;20334;-59
2023/09/20 05:50:47;;;;;;;4.55;2.50;;;21.20;67.20;;;;;;5094136;28;20222;-59
2023/09/20 05:53:14;;;;;;;4.05;2.53;;;21.30;67.30;;;;;;5113974;28;20240;-59
2023/09/20 05:55:44;;;;;;;4.88;2.38;;;21.20;67.20;;;;;;5115200;28;20200;-57
2023/09/20 05:58:11;;;;;;;7.68;2.72;;;21.20;67.20;;;;;;5104891;27;20205;-55
2023/09/20 06:00:39;;;;;;;5.90;2.47;;;21.20;67.20;;;;;;5093837;28;20221;-59
2023/09/20 06:03:07;;;;;;;5.10;2.55;;;21.20;67.20;;;;;;5112622;28;20277;-58
2023/09/20 06:05:37;;;;;;;4.75;2.75;;;21.20;67.20;;;;;;5114445;28;21666;-60
2023/09/20 06:08:06;;;;;;;9.02;2.70;;;21.20;67.20;;;;;;5099190;28;20201;-60
2023/09/20 06:10:33;;;;;;;5.25;2.80;;;21.20;67.20;;;;;;5093318;28;20190;-59
2023/09/20 06:13:05;;;;;;;4.97;2.75;;;21.20;67.20;;;;;;5111081;28;20186;-59
2023/09/20 06:15:32;;;;;;;5.75;2.72;;;21.20;67.20;;;;;;5114517;28;20199;-60
2023/09/20 06:17:59;;;;;;;6.40;3.08;;;21.20;67.10;;;;;;5124767;27;20193;-62
2023/09/20 06:20:27;;;;;;;5.20;2.60;;;21.20;67.20;;;;;;5134589;27;20295;-61
2023/09/20 06:22:56;;;;;;;4.50;2.88;;;21.20;67.20;;;;;;5110303;27;20201;-61
2023/09/20 06:25:26;;;;;;;5.32;2.72;;;21.30;67.20;;;;;;5106317;28;20586;-62
2023/09/20 06:27:54;;;;;;;9.43;3.10;;;21.30;68.00;;;;;;5113866;28;20547;-64
2023/09/20 06:30:24;;;;;;;5.10;3.05;;;21.20;67.00;;;;;;5113429;28;20225;-60
2023/09/20 06:32:52;;;;;;;7.47;2.92;;;21.30;67.10;;;;;;5127090;27;20210;-60
2023/09/20 06:35:20;;;;;;;7.00;3.00;;;21.30;66.90;;;;;;5134736;27;20192;-60
2023/09/20 06:37:48;;;;;;;5.60;3.00;;;21.30;66.90;;;;;;5108254;27;20217;-60
2023/09/20 06:40:22;;;;;;;6.28;3.30;;;21.30;66.80;;;;;;5092929;28;20218;-59
2023/09/20 06:42:50;;;;;;;5.50;2.95;;;21.30;66.80;;;;;;5093047;28;20217;-60
2023/09/20 06:45:18;;;;;;;6.40;3.10;;;21.30;66.70;;;;;;5110736;27;20185;-61
2023/09/20 06:47:46;;;;;;;6.15;3.50;;;21.30;66.80;;;;;;5102102;27;20218;-60
2023/09/20 06:50:14;;;;;;;6.07;2.80;;;21.40;66.90;;;;;;5133143;27;20188;-59
2023/09/20 06:52:42;;;;;;;5.05;2.92;;;21.40;66.90;;;;;;5116502;27;20318;-58
2023/09/20 06:55:13;;;;;;;10.30;3.10;;;21.50;67.00;;;;;;5133710;27;20192;-60
2023/09/20 06:57:41;;;;;;;6.82;3.30;;;21.50;67.10;;;;;;5101502;27;20205;-58
2023/09/20 07:02:56;;;;;;;6.32;3.47;;;21.50;67.30;;;;;;5119802;27;20635;-57
2023/09/20 07:05:28;;;;;;;10.95;3.30;;;21.60;67.40;;;;;;5107842;27;20233;-59
2023/09/20 07:07:55;;;;;;;7.18;3.28;;;21.60;67.40;;;;;;5101344;28;20231;-58
2023/09/20 07:10:25;;;;;;;7.28;3.40;;;21.60;67.20;;;;;;5074799;27;20198;-55
2023/09/20 07:13:19;;;;;;;7.68;3.40;;;21.70;67.30;;;;;;5093289;27;20236;-58
2023/09/20 07:19:23;;;;;;;7.65;3.30;;;21.70;67.30;;;;;;5043366;28;20219;-50
2023/09/20 07:21:55;;;;;;;9.10;3.78;;;21.70;67.30;;;;;;5028389;28;20240;-49
2023/09/20 07:24:26;;;;;;;5.15;2.90;;;21.70;67.30;;;;;;5042359;28;20681;-52
2023/09/20 07:26:59;;;;;;;7.95;3.72;;;21.70;67.20;;;;;;5036977;28;20713;-52
2023/09/20 07:29:30;;;;;;;9.48;4.03;;;21.70;67.00;;;;;;5013174;28;20208;-58
2023/09/20 07:32:05;;;;;;;10.75;3.72;;;21.70;66.90;;;;;;5047471;28;20550;-59
2023/09/20 07:34:36;;;;;;;10.45;3.67;;;21.70;66.90;;;;;;5000273;28;20246;-59
2023/09/20 07:37:07;;;;;;;15.77;3.80;;;21.70;67.10;;;;;;5037837;28;20594;-54
2023/09/20 07:39:35;;;;;;;8.80;3.70;;;21.70;67.20;;;;;;5043311;28;20212;-53
2023/09/20 07:42:09;;;;;;;11.30;4.20;;;21.70;67.10;;;;;;5040304;28;20834;-49
2023/09/20 07:44:43;;;;;;;16.45;4.10;;;21.80;67.10;;;;;;5041840;28;20836;-51
2023/09/20 07:47:12;;;;;;;12.27;3.58;;;21.80;66.90;;;;;;5029133;28;20265;-54
2023/09/20 07:49:46;;;;;;;8.43;3.70;;;21.80;66.80;;;;;;5043112;28;20184;-50
2023/09/20 07:52:20;;;;;;;10.70;3.85;;;21.80;66.80;;;;;;5026755;28;20825;-52
2023/09/20 07:54:52;;;;;;;11.73;4.05;;;21.80;67.10;;;;;;5047993;28;20204;-52
2023/09/20 07:57:22;;;;;;;8.32;3.63;;;21.80;67.20;;;;;;5087567;28;20245;-57
2023/09/20 07:59:54;;;;;;;10.93;4.30;;;21.90;67.50;;;;;;5049044;28;20675;-63
2023/09/20 08:02:33;;;;;;;6.85;3.53;;;21.90;67.30;;;;;;5021928;28;20245;-60
2023/09/20 08:05:04;;;;;;;13.25;3.80;;;21.90;67.40;;;;;;5039851;28;20661;-61
2023/09/20 08:07:33;;;;;;;9.57;3.85;;;22.00;67.50;;;;;;5052403;28;20221;-55
2023/09/20 08:10:02;;;;;;;9.50;3.92;;;22.00;67.40;;;;;;5078847;28;20586;-54
2023/09/20 08:12:32;;;;;;;12.57;3.95;;;22.00;67.20;;;;;;5074824;28;20822;-51
2023/09/20 08:15:03;;;;;;;15.40;3.95;;;22.10;67.30;;;;;;5075386;28;20195;-58
2023/09/20 08:20:22;;;;;;;11.32;4.57;;;22.20;67.10;;;;;;5077576;28;20322;-54
2023/09/20 09:02:14;;;;;;;10.38;4.20;;;22.50;66.50;;;;;;5104188;28;20602;-54
2023/09/20 09:04:45;;;;;;;11.35;4.07;;;22.50;66.40;;;;;;5090674;27;20193;-57
2023/09/20 09:07:13;;;;;;;12.63;4.07;;;22.60;66.50;;;;;;5098863;27;20217;-61
2023/09/20 09:09:43;;;;;;;8.07;4.03;;;22.50;66.40;;;;;;5103511;28;20197;-58
2023/09/20 09:12:11;;;;;;;9.07;4.00;;;22.60;66.40;;;;;;5111212;27;20903;-61
2023/09/20 09:14:46;;;;;;;11.98;3.55;;;22.60;66.40;;;;;;5094584;28;20194;-63
2023/09/20 09:17:17;;;;;;;8.20;3.90;;;22.70;66.40;;;;;;5104485;28;21016;-63
2023/09/20 09:19:45;;;;;;;11.43;4.10;;;22.60;66.20;;;;;;5099530;28;20634;-60
2023/09/20 09:22:15;;;;;;;13.90;4.57;;;22.70;66.30;;;;;;5110494;27;20233;-62
2023/09/20 09:24:45;;;;;;;9.95;4.00;;;22.60;66.10;;;;;;5102721;28;20248;-62
2023/09/20 09:27:18;;;;;;;11.07;3.60;;;22.70;66.20;;;;;;5096451;28;20277;-60
2023/09/20 09:33:45;;;;;;;7.18;3.30;;;22.70;66.10;;;;;;5110966;27;20304;-61
2023/09/20 09:36:44;;;;;;;8.77;3.70;;;22.70;66.30;;;;;;5097652;28;20197;-60
2023/09/20 09:39:14;;;;;;;9.07;3.92;;;22.80;66.50;;;;;;5092612;28;20213;-58
2023/09/20 09:41:44;;;;;;;12.45;3.85;;;22.80;66.50;;;;;;5092314;28;20244;-61
2023/09/20 09:47:24;;;;;;;11.48;3.72;;;22.80;66.40;;;;;;5056717;28;20216;-62
2023/09/20 09:49:55;;;;;;;16.35;3.55;;;22.80;66.30;;;;;;5099997;28;20304;-61
2023/09/20 09:52:27;;;;;;;12.90;3.80;;;22.80;66.30;;;;;;5072608;28;20297;-59
2023/09/20 09:55:07;;;;;;;8.65;3.55;;;22.80;66.20;;;;;;5090581;28;20217;-60
2023/09/20 10:03:15;;;;;;;10.82;3.67;;;22.80;66.00;;;;;;5094147;28;20240;-62
2023/09/20 10:05:44;;;;;;;10.38;3.75;;;22.70;65.90;;;;;;5107173;28;20193;-60
2023/09/20 10:08:15;;;;;;;10.00;3.80;;;22.70;65.90;;;;;;5108715;28;20649;-60
2023/09/20 10:10:45;;;;;;;15.20;3.60;;;22.70;66.00;;;;;;5106156;28;20198;-62
2023/09/20 10:13:15;;;;;;;6.28;3.20;;;22.70;66.00;;;;;;5108269;28;20217;-62
2023/09/20 10:15:43;;;;;;;8.63;3.30;;;22.80;66.30;;;;;;5101535;28;20193;-60
2023/09/20 10:18:12;;;;;;;9.55;3.70;;;22.80;65.80;;;;;;5104926;28;20229;-57
2023/09/20 10:21:04;;;;;;;7.57;3.42;;;22.70;65.60;;;;;;5103342;27;20734;-58
2023/09/20 10:23:35;;;;;;;8.98;3.45;;;22.70;65.50;;;;;;5102264;28;20221;-63
2023/09/20 10:28:47;;;;;;;10.48;3.65;;;22.80;65.60;;;;;;5102212;28;20209;-59
2023/09/20 10:31:22;;;;;;;9.98;3.30;;;22.80;65.50;;;;;;5106147;28;20189;-57
2023/09/20 10:33:52;;;;;;;14.63;3.20;;;22.80;65.40;;;;;;5103187;28;20224;-61
2023/09/20 10:36:24;;;;;;;8.90;3.65;;;22.70;65.30;;;;;;5110302;27;20315;-62
2023/09/20 10:39:21;;;;;;;9.15;3.28;;;22.70;65.20;;;;;;5098502;28;20220;-62
2023/09/20 10:41:53;;;;;;;8.70;3.30;;;22.80;66.10;;;;;;5106779;28;20302;-62
2023/09/20 10:48:13;;;;;;;9.60;3.45;;;22.70;65.10;;;;;;4998123;28;21124;-63
2023/09/20 10:50:50;;;;;;;6.72;3.15;;;22.80;65.20;;;;;;5043601;28;20615;-60
2023/09/20 10:57:01;;;;;;;7.55;3.10;;;22.80;65.10;;;;;;4944824;28;20236;-56
2023/09/20 10:59:30;;;;;;;8.35;3.38;;;22.80;65.10;;;;;;5018440;28;20228;-58
2023/09/20 11:02:26;;;;;;;8.93;3.35;;;22.70;65.00;;;;;;5019783;28;20672;-60
2023/09/20 11:04:57;;;;;;;7.18;3.03;;;22.70;65.00;;;;;;5014574;28;20206;-57
2023/09/20 11:07:42;;;;;;;8.40;3.33;;;22.70;65.00;;;;;;5023789;28;20212;-61
2023/09/20 11:10:13;;;;;;;5.95;2.58;;;22.70;65.00;;;;;;5020192;28;20216;-57
2023/09/20 11:12:46;;;;;;;6.00;3.13;;;22.70;65.00;;;;;;5022771;28;20208;-62
2023/09/20 11:15:15;;;;;;;7.03;3.33;;;22.70;65.00;;;;;;5022941;28;20212;-56
2023/09/20 11:17:43;;;;;;;5.88;2.85;;;22.70;65.00;;;;;;5018782;28;20188;-62
2023/09/20 11:20:15;;;;;;;6.05;2.97;;;22.70;65.00;;;;;;5016775;28;20251;-62
2023/09/20 11:22:43;;;;;;;7.45;3.08;;;22.70;65.00;;;;;;5020027;28;20819;-56
2023/09/20 11:25:12;;;;;;;7.47;3.22;;;22.60;64.90;;;;;;5009996;28;20200;-60
2023/09/20 11:27:40;;;;;;;5.82;2.88;;;22.80;65.10;;;;;;5014529;28;20303;-57
2023/09/20 11:36:55;;;;;;;9.38;3.63;;;22.70;64.90;;;;;;5105345;28;20176;-58
2023/09/20 11:39:42;;;;;;;5.93;2.67;;;22.60;64.70;;;;;;5099301;28;20221;-60
2023/09/20 11:42:10;;;;;;;6.88;2.85;;;22.70;65.00;;;;;;5105136;28;20725;-61
2023/09/20 11:44:38;;;;;;;5.43;2.50;;;22.70;65.10;;;;;;5105838;28;20236;-60
2023/09/20 11:47:09;;;;;;;7.18;2.80;;;22.70;65.30;;;;;;5105728;28;20194;-61
2023/09/20 11:49:44;;;;;;;6.80;2.90;;;22.70;65.20;;;;;;5090677;28;20216;-62
2023/09/20 11:52:19;;;;;;;6.53;3.22;;;22.70;65.10;;;;;;5102625;28;20276;-60
2023/09/20 11:54:59;;;;;;;7.88;2.95;;;22.70;65.30;;;;;;5079690;28;20221;-59
2023/09/20 11:58:22;;;;;;;7.45;3.67;;;22.80;65.50;;;;;;5082876;28;20268;-62
2023/09/20 12:00:49;;;;;;;12.07;6.53;;;22.80;65.30;;;;;;5076503;28;20261;-63
2023/09/20 12:03:19;;;;;;;13.57;7.35;;;22.80;65.30;;;;;;5076366;28;21034;-57
2023/09/20 12:09:05;;;;;;;15.77;6.93;;;22.80;65.20;;;;;;5011801;28;20235;-58
2023/09/20 12:11:35;;;;;;;11.55;6.68;;;22.80;65.20;;;;;;5025624;28;20236;-55
2023/09/20 12:14:03;;;;;;;19.05;6.32;;;22.80;65.20;;;;;;5072330;28;20685;-60
2023/09/20 12:16:31;;;;;;;16.75;6.43;;;22.80;65.10;;;;;;5074849;28;20203;-62
2023/09/20 12:19:17;;;;;;;10.63;5.18;;;22.80;65.20;;;;;;5081660;28;20271;-56
2023/09/20 12:21:45;;;;;;;11.07;5.70;;;22.80;65.10;;;;;;4998059;28;20201;-58
2023/09/20 12:33:51;;;;;;;18.60;4.43;;;22.80;65.10;;;;;;4963264;28;20252;-58
2023/09/20 12:36:41;;;;;;;11.85;5.03;;;22.80;65.20;;;;;;4951679;28;20203;-59
2023/09/20 12:39:10;;;;;;;8.88;3.90;;;22.90;65.30;;;;;;4960424;28;20231;-57
2023/09/20 12:41:42;;;;;;;8.13;4.22;;;22.90;65.30;;;;;;4929255;28;20294;-57
2023/09/20 12:44:11;;;;;;;10.68;4.07;;;22.90;65.20;;;;;;4960535;28;20265;-62
2023/09/20 12:53:09;;;;;;;11.27;4.20;;;22.90;65.20;;;;;;4934435;28;20238;-62
2023/09/20 12:56:04;;;;;;;9.40;3.90;;;22.90;65.20;;;;;;4932394;28;20227;-56
2023/09/20 12:58:50;;;;;;;11.77;4.00;;;22.90;65.20;;;;;;4946508;28;20304;-61
2023/09/20 13:01:22;;;;;;;8.15;3.15;;;22.80;65.20;;;;;;4979123;28;21277;-59
2023/09/20 13:03:57;;;;;;;8.73;3.40;;;22.90;65.30;;;;;;4992398;28;20749;-59
2023/09/20 13:06:32;;;;;;;8.82;3.65;;;22.90;65.30;;;;;;4944242;28;20201;-61
2023/09/20 13:11:53;;;;;;;13.07;3.45;;;22.90;65.20;;;;;;4973549;28;20836;-60
2023/09/20 13:14:30;;;;;;;16.83;3.92;;;22.90;65.20;;;;;;4976355;28;20227;-63
2023/09/20 13:17:09;;;;;;;10.43;3.47;;;22.90;65.40;;;;;;5020981;28;20867;-62
2023/09/20 13:19:51;;;;;;;9.23;3.88;;;22.90;65.40;;;;;;4993030;28;20233;-61
2023/09/20 13:22:23;;;;;;;10.82;3.78;;;22.90;65.50;;;;;;5080674;28;20214;-60
2023/09/20 13:49:27;;;;;;;13.00;5.00;;;23.00;66.10;;;;;;4952679;28;20345;-60
2023/09/20 14:01:10;;;;;;;11.57;5.18;;;23.10;65.90;;;;;;4927839;28;20317;-57
2023/09/20 14:13:57;;;;;;;10.38;4.03;;;23.20;65.80;;;;;;4933660;28;20213;-61
2023/09/20 14:20:20;;;;;;;;;;;;;;;;;;;;;
2023/09/20 14:38:49;;;;;;;9.60;3.20;;;23.30;66.00;;;;;;4976025;28;20424;-61
2023/09/20 14:50:25;;;;;;;8.20;3.30;;;23.40;65.70;;;;;;4975987;28;20447;-63
2023/09/20 14:53:06;;;;;;;33.63;3.80;;;23.40;65.80;;;;;;4990793;28;20275;-57
2023/09/20 15:02:41;;;;;;;10.93;4.07;;;23.40;65.60;;;;;;4915708;29;20748;-58
2023/09/20 15:08:20;;;;;;;6.50;3.03;;;23.50;65.50;;;;;;4847334;29;20596;-62
2023/09/20 15:14:29;;;;;;;9.30;3.13;;;23.50;65.30;;;;;;4901384;28;21006;-59
2023/09/20 15:20:14;;;;;;;8.77;3.30;;;23.60;65.40;;;;;;4961018;28;20204;-61
2023/09/20 15:26:21;;;;;;;19.10;4.45;;;23.60;65.40;;;;;;4924792;28;20311;-53
2023/09/20 15:28:49;;;;;;;13.45;3.47;;;23.70;65.30;;;;;;4924436;29;20235;-62
2023/09/20 15:34:40;;;;;;;12.15;3.88;;;23.80;65.40;;;;;;4922977;29;20509;-60
2023/09/20 15:37:12;;;;;;;14.82;4.55;;;23.70;65.10;;;;;;4925104;29;20214;-55
2023/09/20 15:39:44;;;;;;;8.50;3.50;;;23.80;65.10;;;;;;4927131;29;20279;-62
2023/09/20 15:42:22;;;;;;;14.75;4.00;;;23.80;64.90;;;;;;4925510;28;20203;-58
2023/09/20 15:45:09;;;;;;;18.15;9.07;;;23.90;64.80;;;;;;4926736;29;20282;-64
2023/09/20 15:47:53;;;;;;;13.45;4.57;;;23.80;64.70;;;;;;4927535;29;20744;-60
2023/09/20 15:53:29;;;;;;;12.63;4.50;;;24.00;64.80;;;;;;4937913;28;20235;-62
2023/09/20 15:56:11;;;;;;;9.82;3.92;;;23.80;64.70;;;;;;4964885;28;20360;-61
2023/09/20 15:58:39;;;;;;;8.00;3.90;;;23.80;64.90;;;;;;4920791;28;20949;-62
2023/09/20 16:03:50;;;;;;;7.65;3.00;;;23.80;65.20;;;;;;5028346;28;20257;-63
2023/09/20 16:06:18;;;;;;;11.85;3.78;;;23.70;65.10;;;;;;5037674;28;20246;-64
2023/09/20 16:08:45;;;;;;;8.73;3.22;;;23.60;65.00;;;;;;5042028;28;20222;-65
2023/09/20 16:11:13;;;;;;;13.13;3.58;;;23.60;64.80;;;;;;5047020;28;20669;-63
2023/09/20 16:13:40;;;;;;;8.30;3.20;;;23.60;64.70;;;;;;5047741;28;20212;-64
2023/09/20 16:16:08;;;;;;;11.75;3.25;;;23.60;64.70;;;;;;5047556;28;20295;-63
2023/09/20 16:18:35;;;;;;;8.77;2.95;;;23.50;64.70;;;;;;5047791;28;20215;-63
2023/09/20 16:21:06;;;;;;;12.88;3.60;;;23.40;64.60;;;;;;5047542;28;20206;-63
2023/09/20 16:23:33;;;;;;;11.18;3.20;;;23.40;64.70;;;;;;5046189;28;20250;-63
2023/09/20 16:26:01;;;;;;;9.98;3.17;;;23.40;64.80;;;;;;5047693;28;20207;-65
2023/09/20 16:28:29;;;;;;;9.63;3.30;;;23.30;64.70;;;;;;5047579;28;20216;-60
2023/09/20 16:30:56;;;;;;;7.68;2.67;;;23.30;64.80;;;;;;5050853;28;20198;-64
2023/09/20 16:33:24;;;;;;;12.93;3.03;;;23.20;64.70;;;;;;5049562;28;20197;-64
2023/09/20 16:35:51;;;;;;;8.18;3.45;;;23.20;64.80;;;;;;5047025;28;20209;-62
2023/09/20 16:38:21;;;;;;;9.88;2.83;;;23.20;64.80;;;;;;5047275;28;20279;-64
2023/09/20 16:40:49;;;;;;;9.60;2.95;;;23.10;64.80;;;;;;5047621;28;20289;-63
2023/09/20 16:43:17;;;;;;;8.18;2.60;;;23.10;64.90;;;;;;5046529;28;20314;-63
2023/09/20 16:45:49;;;;;;;6.35;2.80;;;23.10;65.00;;;;;;5050682;28;20194;-61